sensor_id;sensor_type;location;lat;lon;timestamp;P1;durP1;ratioP1;P2;durP2;ratioP2
54171;SDS011;40076;52.354;4.970;2023-02-15T00:01:08;54.15;;;34.78;;
54171;SDS011;40076;52.354;4.970;2023-02-15T00:03:38;53.10;;;34.60;;
54171;SDS011;40076;52.354;4.970;2023-02-15T00:06:07;56.03;;;36.05;;
54171;SDS011;40076;52.354;4.970;2023-02-15T00:08:32;53.17;;;34.35;;
54171;SDS011;40076;52.354;4.970;2023-02-15T00:11:08;55.10;;;35.63;;
54171;SDS011;40076;52.354;4.970;2023-02-15T00:13:35;53.95;;;34.97;;
54171;SDS011;40076;52.354;4.970;2023-02-15T00:16:05;56.50;;;34.63;;
54171;SDS011;40076;52.354;4.970;2023-02-15T00:18:37;54.83;;;34.38;;
54171;SDS011;40076;52.354;4.970;2023-02-15T00:21:06;55.47;;;33.67;;
54171;SDS011;40076;52.354;4.970;2023-02-15T00:23:33;52.33;;;33.90;;
54171;SDS011;40076;52.354;4.970;2023-02-15T00:26:03;53.95;;;32.88;;
54171;SDS011;40076;52.354;4.970;2023-02-15T00:28:32;43.75;;;28.63;;
54171;SDS011;40076;52.354;4.970;2023-02-15T00:33:30;53.03;;;33.08;;
54171;SDS011;40076;52.354;4.970;2023-02-15T00:35:56;52.90;;;34.15;;
54171;SDS011;40076;52.354;4.970;2023-02-15T00:38:22;51.95;;;32.65;;
54171;SDS011;40076;52.354;4.970;2023-02-15T00:40:51;54.97;;;33.30;;
54171;SDS011;40076;52.354;4.970;2023-02-15T00:43:18;49.35;;;31.95;;
54171;SDS011;40076;52.354;4.970;2023-02-15T00:45:44;56.65;;;32.58;;
54171;SDS011;40076;52.354;4.970;2023-02-15T00:48:10;51.95;;;32.10;;
54171;SDS011;40076;52.354;4.970;2023-02-15T00:50:35;50.72;;;32.40;;
54171;SDS011;40076;52.354;4.970;2023-02-15T00:53:01;48.33;;;31.17;;
54171;SDS011;40076;52.354;4.970;2023-02-15T00:55:26;49.38;;;31.02;;
54171;SDS011;40076;52.354;4.970;2023-02-15T00:57:51;55.40;;;33.25;;
54171;SDS011;40076;52.354;4.970;2023-02-15T01:00:17;55.00;;;32.97;;
54171;SDS011;40076;52.354;4.970;2023-02-15T01:02:42;50.05;;;31.38;;
54171;SDS011;40076;52.354;4.970;2023-02-15T01:05:08;49.65;;;32.38;;
54171;SDS011;40076;52.354;4.970;2023-02-15T01:07:33;48.95;;;30.90;;
54171;SDS011;40076;52.354;4.970;2023-02-15T01:09:58;49.08;;;30.88;;
54171;SDS011;40076;52.354;4.970;2023-02-15T01:12:24;48.58;;;30.30;;
54171;SDS011;40076;52.354;4.970;2023-02-15T01:14:49;49.75;;;30.08;;
54171;SDS011;40076;52.354;4.970;2023-02-15T01:17:14;53.65;;;30.42;;
54171;SDS011;40076;52.354;4.970;2023-02-15T01:19:40;45.80;;;30.00;;
54171;SDS011;40076;52.354;4.970;2023-02-15T01:22:05;54.20;;;32.58;;
54171;SDS011;40076;52.354;4.970;2023-02-15T01:24:31;49.80;;;30.23;;
54171;SDS011;40076;52.354;4.970;2023-02-15T01:26:56;49.97;;;31.02;;
54171;SDS011;40076;52.354;4.970;2023-02-15T01:29:22;45.92;;;30.27;;
54171;SDS011;40076;52.354;4.970;2023-02-15T01:31:47;44.63;;;28.95;;
54171;SDS011;40076;52.354;4.970;2023-02-15T01:34:12;43.28;;;28.33;;
54171;SDS011;40076;52.354;4.970;2023-02-15T01:36:38;45.42;;;29.73;;
54171;SDS011;40076;52.354;4.970;2023-02-15T01:39:03;43.22;;;29.27;;
54171;SDS011;40076;52.354;4.970;2023-02-15T01:41:32;42.78;;;28.52;;
54171;SDS011;40076;52.354;4.970;2023-02-15T01:43:59;44.17;;;27.83;;
54171;SDS011;40076;52.354;4.970;2023-02-15T01:46:38;44.50;;;28.17;;
54171;SDS011;40076;52.354;4.970;2023-02-15T01:49:12;46.17;;;29.88;;
54171;SDS011;40076;52.354;4.970;2023-02-15T01:51:44;42.67;;;27.40;;
54171;SDS011;40076;52.354;4.970;2023-02-15T01:56:46;42.42;;;27.33;;
54171;SDS011;40076;52.354;4.970;2023-02-15T01:59:14;42.65;;;27.35;;
54171;SDS011;40076;52.354;4.970;2023-02-15T02:01:44;41.53;;;27.40;;
54171;SDS011;40076;52.354;4.970;2023-02-15T02:04:13;44.90;;;29.38;;
54171;SDS011;40076;52.354;4.970;2023-02-15T02:06:44;36.55;;;22.10;;
54171;SDS011;40076;52.354;4.970;2023-02-15T02:09:12;41.33;;;27.05;;
54171;SDS011;40076;52.354;4.970;2023-02-15T02:11:38;40.63;;;27.13;;
54171;SDS011;40076;52.354;4.970;2023-02-15T02:14:05;47.15;;;28.67;;
54171;SDS011;40076;52.354;4.970;2023-02-15T02:16:40;41.60;;;26.98;;
54171;SDS011;40076;52.354;4.970;2023-02-15T02:19:58;43.72;;;28.38;;
54171;SDS011;40076;52.354;4.970;2023-02-15T02:25:19;43.20;;;27.73;;
54171;SDS011;40076;52.354;4.970;2023-02-15T02:37:16;46.42;;;27.95;;
54171;SDS011;40076;52.354;4.970;2023-02-15T02:43:00;45.35;;;28.08;;
54171;SDS011;40076;52.354;4.970;2023-02-15T02:45:43;45.55;;;28.73;;
54171;SDS011;40076;52.354;4.970;2023-02-15T02:48:16;42.08;;;28.48;;
54171;SDS011;40076;52.354;4.970;2023-02-15T02:50:47;42.47;;;27.37;;
54171;SDS011;40076;52.354;4.970;2023-02-15T02:53:13;44.53;;;28.45;;
54171;SDS011;40076;52.354;4.970;2023-02-15T02:55:40;41.28;;;27.38;;
54171;SDS011;40076;52.354;4.970;2023-02-15T02:58:19;30.98;;;20.55;;
54171;SDS011;40076;52.354;4.970;2023-02-15T03:00:53;42.95;;;27.33;;
54171;SDS011;40076;52.354;4.970;2023-02-15T03:03:38;34.85;;;21.17;;
54171;SDS011;40076;52.354;4.970;2023-02-15T03:06:21;42.45;;;27.50;;
54171;SDS011;40076;52.354;4.970;2023-02-15T03:09:05;43.33;;;28.10;;
54171;SDS011;40076;52.354;4.970;2023-02-15T03:11:39;40.75;;;26.55;;
54171;SDS011;40076;52.354;4.970;2023-02-15T03:14:06;41.38;;;26.40;;
54171;SDS011;40076;52.354;4.970;2023-02-15T03:16:31;44.25;;;26.98;;
54171;SDS011;40076;52.354;4.970;2023-02-15T03:19:08;42.40;;;28.20;;
54171;SDS011;40076;52.354;4.970;2023-02-15T03:21:38;43.08;;;27.50;;
54171;SDS011;40076;52.354;4.970;2023-02-15T03:24:22;42.40;;;27.67;;
54171;SDS011;40076;52.354;4.970;2023-02-15T03:26:51;42.47;;;27.52;;
54171;SDS011;40076;52.354;4.970;2023-02-15T03:29:19;44.03;;;28.10;;
54171;SDS011;40076;52.354;4.970;2023-02-15T03:31:48;48.05;;;29.92;;
54171;SDS011;40076;52.354;4.970;2023-02-15T03:34:18;42.88;;;27.98;;
54171;SDS011;40076;52.354;4.970;2023-02-15T03:36:45;43.30;;;28.20;;
54171;SDS011;40076;52.354;4.970;2023-02-15T03:39:19;40.95;;;26.65;;
54171;SDS011;40076;52.354;4.970;2023-02-15T03:44:46;42.92;;;26.77;;
54171;SDS011;40076;52.354;4.970;2023-02-15T03:47:19;41.72;;;26.48;;
54171;SDS011;40076;52.354;4.970;2023-02-15T03:49:52;41.72;;;27.23;;
54171;SDS011;40076;52.354;4.970;2023-02-15T03:54:50;40.13;;;26.23;;
54171;SDS011;40076;52.354;4.970;2023-02-15T03:57:20;42.30;;;27.20;;
54171;SDS011;40076;52.354;4.970;2023-02-15T04:00:18;44.70;;;26.77;;
54171;SDS011;40076;52.354;4.970;2023-02-15T04:05:40;47.85;;;29.75;;
54171;SDS011;40076;52.354;4.970;2023-02-15T04:08:06;46.47;;;28.40;;
54171;SDS011;40076;52.354;4.970;2023-02-15T04:10:32;45.38;;;28.52;;
54171;SDS011;40076;52.354;4.970;2023-02-15T04:13:16;43.65;;;27.00;;
54171;SDS011;40076;52.354;4.970;2023-02-15T04:15:41;44.88;;;27.95;;
54171;SDS011;40076;52.354;4.970;2023-02-15T04:18:25;45.05;;;28.23;;
54171;SDS011;40076;52.354;4.970;2023-02-15T04:21:09;45.38;;;28.35;;
54171;SDS011;40076;52.354;4.970;2023-02-15T04:23:53;50.05;;;27.65;;
54171;SDS011;40076;52.354;4.970;2023-02-15T04:26:37;42.95;;;27.13;;
54171;SDS011;40076;52.354;4.970;2023-02-15T04:29:02;43.92;;;27.35;;
54171;SDS011;40076;52.354;4.970;2023-02-15T04:31:28;45.50;;;28.60;;
54171;SDS011;40076;52.354;4.970;2023-02-15T04:33:53;44.22;;;27.17;;
54171;SDS011;40076;52.354;4.970;2023-02-15T04:36:18;42.65;;;26.67;;
54171;SDS011;40076;52.354;4.970;2023-02-15T04:38:43;41.60;;;26.13;;
54171;SDS011;40076;52.354;4.970;2023-02-15T04:41:09;46.22;;;26.42;;
54171;SDS011;40076;52.354;4.970;2023-02-15T04:43:36;41.33;;;26.52;;
54171;SDS011;40076;52.354;4.970;2023-02-15T04:46:01;45.75;;;26.90;;
54171;SDS011;40076;52.354;4.970;2023-02-15T04:48:27;40.65;;;26.65;;
54171;SDS011;40076;52.354;4.970;2023-02-15T04:50:52;47.85;;;28.48;;
54171;SDS011;40076;52.354;4.970;2023-02-15T04:53:17;46.85;;;29.52;;
54171;SDS011;40076;52.354;4.970;2023-02-15T04:55:43;48.45;;;29.67;;
54171;SDS011;40076;52.354;4.970;2023-02-15T04:58:08;46.42;;;29.48;;
54171;SDS011;40076;52.354;4.970;2023-02-15T05:00:34;52.30;;;31.05;;
54171;SDS011;40076;52.354;4.970;2023-02-15T05:02:59;52.92;;;31.50;;
54171;SDS011;40076;52.354;4.970;2023-02-15T05:05:24;51.38;;;30.88;;
54171;SDS011;40076;52.354;4.970;2023-02-15T05:07:50;52.45;;;32.67;;
54171;SDS011;40076;52.354;4.970;2023-02-15T05:10:15;57.80;;;33.15;;
54171;SDS011;40076;52.354;4.970;2023-02-15T05:12:40;58.92;;;34.95;;
54171;SDS011;40076;52.354;4.970;2023-02-15T05:15:06;54.38;;;32.17;;
54171;SDS011;40076;52.354;4.970;2023-02-15T05:17:31;60.42;;;33.22;;
54171;SDS011;40076;52.354;4.970;2023-02-15T05:19:57;58.15;;;32.55;;
54171;SDS011;40076;52.354;4.970;2023-02-15T05:22:23;55.97;;;31.70;;
54171;SDS011;40076;52.354;4.970;2023-02-15T05:24:48;59.50;;;34.35;;
54171;SDS011;40076;52.354;4.970;2023-02-15T05:27:32;55.95;;;33.72;;
54171;SDS011;40076;52.354;4.970;2023-02-15T05:30:16;62.25;;;33.60;;
54171;SDS011;40076;52.354;4.970;2023-02-15T05:32:42;63.97;;;36.33;;
54171;SDS011;40076;52.354;4.970;2023-02-15T05:35:07;60.97;;;34.67;;
54171;SDS011;40076;52.354;4.970;2023-02-15T05:37:32;62.53;;;34.33;;
54171;SDS011;40076;52.354;4.970;2023-02-15T05:39:58;59.38;;;33.42;;
54171;SDS011;40076;52.354;4.970;2023-02-15T05:42:23;60.97;;;33.60;;
54171;SDS011;40076;52.354;4.970;2023-02-15T05:44:49;60.47;;;33.67;;
54171;SDS011;40076;52.354;4.970;2023-02-15T05:47:14;58.05;;;33.20;;
54171;SDS011;40076;52.354;4.970;2023-02-15T05:49:39;60.25;;;33.78;;
54171;SDS011;40076;52.354;4.970;2023-02-15T05:52:05;58.38;;;34.28;;
54171;SDS011;40076;52.354;4.970;2023-02-15T05:54:33;61.55;;;35.13;;
54171;SDS011;40076;52.354;4.970;2023-02-15T05:56:58;62.83;;;36.65;;
54171;SDS011;40076;52.354;4.970;2023-02-15T05:59:23;59.38;;;34.30;;
54171;SDS011;40076;52.354;4.970;2023-02-15T06:01:49;60.78;;;34.58;;
54171;SDS011;40076;52.354;4.970;2023-02-15T06:04:14;62.75;;;35.55;;
54171;SDS011;40076;52.354;4.970;2023-02-15T06:06:40;63.90;;;35.50;;
54171;SDS011;40076;52.354;4.970;2023-02-15T06:09:05;65.55;;;35.75;;
54171;SDS011;40076;52.354;4.970;2023-02-15T06:11:30;57.88;;;34.38;;
54171;SDS011;40076;52.354;4.970;2023-02-15T06:13:56;70.07;;;37.10;;
54171;SDS011;40076;52.354;4.970;2023-02-15T06:16:24;62.40;;;35.33;;
54171;SDS011;40076;52.354;4.970;2023-02-15T06:18:49;65.00;;;34.65;;
54171;SDS011;40076;52.354;4.970;2023-02-15T06:21:14;57.65;;;34.05;;
54171;SDS011;40076;52.354;4.970;2023-02-15T06:23:40;64.28;;;35.92;;
54171;SDS011;40076;52.354;4.970;2023-02-15T06:26:05;61.58;;;32.70;;
54171;SDS011;40076;52.354;4.970;2023-02-15T06:28:33;66.80;;;36.45;;
54171;SDS011;40076;52.354;4.970;2023-02-15T06:31:06;61.47;;;33.67;;
54171;SDS011;40076;52.354;4.970;2023-02-15T06:33:31;58.92;;;33.90;;
54171;SDS011;40076;52.354;4.970;2023-02-15T06:35:58;67.55;;;34.35;;
54171;SDS011;40076;52.354;4.970;2023-02-15T06:38:24;59.42;;;34.25;;
54171;SDS011;40076;52.354;4.970;2023-02-15T06:40:49;64.75;;;36.33;;
54171;SDS011;40076;52.354;4.970;2023-02-15T06:43:17;63.65;;;35.25;;
54171;SDS011;40076;52.354;4.970;2023-02-15T06:45:52;60.53;;;33.55;;
54171;SDS011;40076;52.354;4.970;2023-02-15T06:48:17;60.53;;;33.85;;
54171;SDS011;40076;52.354;4.970;2023-02-15T06:50:42;58.20;;;33.40;;
54171;SDS011;40076;52.354;4.970;2023-02-15T06:53:08;61.92;;;33.17;;
54171;SDS011;40076;52.354;4.970;2023-02-15T06:55:33;57.15;;;33.30;;
54171;SDS011;40076;52.354;4.970;2023-02-15T06:57:58;57.90;;;33.42;;
54171;SDS011;40076;52.354;4.970;2023-02-15T07:00:24;58.72;;;33.13;;
54171;SDS011;40076;52.354;4.970;2023-02-15T07:02:53;54.22;;;31.50;;
54171;SDS011;40076;52.354;4.970;2023-02-15T07:05:22;42.00;;;24.88;;
54171;SDS011;40076;52.354;4.970;2023-02-15T07:07:50;65.15;;;34.00;;
54171;SDS011;40076;52.354;4.970;2023-02-15T07:10:15;58.38;;;33.22;;
54171;SDS011;40076;52.354;4.970;2023-02-15T07:12:41;60.90;;;33.28;;
54171;SDS011;40076;52.354;4.970;2023-02-15T07:15:14;61.00;;;33.50;;
54171;SDS011;40076;52.354;4.970;2023-02-15T07:17:41;54.67;;;31.67;;
54171;SDS011;40076;52.354;4.970;2023-02-15T07:20:08;58.55;;;32.75;;
54171;SDS011;40076;52.354;4.970;2023-02-15T07:22:36;55.40;;;31.92;;
54171;SDS011;40076;52.354;4.970;2023-02-15T07:25:03;59.65;;;32.58;;
54171;SDS011;40076;52.354;4.970;2023-02-15T07:27:30;60.40;;;32.20;;
54171;SDS011;40076;52.354;4.970;2023-02-15T07:29:56;59.20;;;33.25;;
54171;SDS011;40076;52.354;4.970;2023-02-15T07:32:21;58.28;;;34.08;;
54171;SDS011;40076;52.354;4.970;2023-02-15T07:34:46;59.10;;;33.22;;
54171;SDS011;40076;52.354;4.970;2023-02-15T07:37:12;61.17;;;33.85;;
54171;SDS011;40076;52.354;4.970;2023-02-15T07:39:37;58.55;;;33.33;;
54171;SDS011;40076;52.354;4.970;2023-02-15T07:42:02;64.43;;;36.17;;
54171;SDS011;40076;52.354;4.970;2023-02-15T07:44:28;62.67;;;34.30;;
54171;SDS011;40076;52.354;4.970;2023-02-15T07:46:53;56.85;;;33.15;;
54171;SDS011;40076;52.354;4.970;2023-02-15T07:49:18;58.55;;;33.95;;
54171;SDS011;40076;52.354;4.970;2023-02-15T07:51:44;63.67;;;35.85;;
54171;SDS011;40076;52.354;4.970;2023-02-15T07:54:09;64.03;;;35.28;;
54171;SDS011;40076;52.354;4.970;2023-02-15T07:56:34;59.33;;;34.50;;
54171;SDS011;40076;52.354;4.970;2023-02-15T07:59:00;66.40;;;35.95;;
54171;SDS011;40076;52.354;4.970;2023-02-15T08:01:30;62.60;;;35.03;;
54171;SDS011;40076;52.354;4.970;2023-02-15T08:03:57;69.68;;;36.05;;
54171;SDS011;40076;52.354;4.970;2023-02-15T08:06:24;65.85;;;37.30;;
54171;SDS011;40076;52.354;4.970;2023-02-15T08:08:50;65.22;;;35.28;;
54171;SDS011;40076;52.354;4.970;2023-02-15T08:11:17;65.38;;;36.15;;
54171;SDS011;40076;52.354;4.970;2023-02-15T08:13:54;73.45;;;38.08;;
54171;SDS011;40076;52.354;4.970;2023-02-15T08:16:24;55.85;;;29.60;;
54171;SDS011;40076;52.354;4.970;2023-02-15T08:18:51;64.50;;;36.70;;
54171;SDS011;40076;52.354;4.970;2023-02-15T08:21:17;73.75;;;40.60;;
54171;SDS011;40076;52.354;4.970;2023-02-15T08:23:43;72.38;;;41.38;;
54171;SDS011;40076;52.354;4.970;2023-02-15T08:26:08;68.70;;;38.47;;
54171;SDS011;40076;52.354;4.970;2023-02-15T08:28:33;67.47;;;39.22;;
54171;SDS011;40076;52.354;4.970;2023-02-15T08:31:06;73.00;;;40.22;;
54171;SDS011;40076;52.354;4.970;2023-02-15T08:36:01;76.50;;;39.25;;
54171;SDS011;40076;52.354;4.970;2023-02-15T08:38:37;69.07;;;39.97;;
54171;SDS011;40076;52.354;4.970;2023-02-15T08:41:09;74.30;;;40.22;;
54171;SDS011;40076;52.354;4.970;2023-02-15T08:43:36;74.25;;;40.45;;
54171;SDS011;40076;52.354;4.970;2023-02-15T08:46:01;71.68;;;41.45;;
54171;SDS011;40076;52.354;4.970;2023-02-15T08:48:27;72.82;;;41.25;;
54171;SDS011;40076;52.354;4.970;2023-02-15T08:50:52;77.63;;;42.75;;
54171;SDS011;40076;52.354;4.970;2023-02-15T08:53:18;74.88;;;42.08;;
54171;SDS011;40076;52.354;4.970;2023-02-15T08:55:46;75.00;;;41.58;;
54171;SDS011;40076;52.354;4.970;2023-02-15T08:58:11;77.65;;;43.47;;
54171;SDS011;40076;52.354;4.970;2023-02-15T09:00:37;74.72;;;43.60;;
54171;SDS011;40076;52.354;4.970;2023-02-15T09:03:03;79.25;;;44.53;;
54171;SDS011;40076;52.354;4.970;2023-02-15T09:05:28;93.70;;;48.15;;
54171;SDS011;40076;52.354;4.970;2023-02-15T09:07:53;79.03;;;44.72;;
54171;SDS011;40076;52.354;4.970;2023-02-15T09:10:19;76.88;;;43.53;;
54171;SDS011;40076;52.354;4.970;2023-02-15T09:12:45;77.30;;;43.67;;
54171;SDS011;40076;52.354;4.970;2023-02-15T09:15:10;79.47;;;44.28;;
54171;SDS011;40076;52.354;4.970;2023-02-15T09:17:35;72.85;;;43.20;;
54171;SDS011;40076;52.354;4.970;2023-02-15T09:20:01;73.97;;;43.67;;
54171;SDS011;40076;52.354;4.970;2023-02-15T09:22:26;74.22;;;43.17;;
54171;SDS011;40076;52.354;4.970;2023-02-15T09:24:51;74.93;;;41.70;;
54171;SDS011;40076;52.354;4.970;2023-02-15T09:27:17;75.07;;;41.05;;
54171;SDS011;40076;52.354;4.970;2023-02-15T09:29:42;71.45;;;43.97;;
54171;SDS011;40076;52.354;4.970;2023-02-15T09:32:07;71.97;;;42.70;;
54171;SDS011;40076;52.354;4.970;2023-02-15T09:34:33;72.53;;;42.80;;
54171;SDS011;40076;52.354;4.970;2023-02-15T09:36:58;72.90;;;42.67;;
54171;SDS011;40076;52.354;4.970;2023-02-15T09:39:24;72.55;;;43.08;;
54171;SDS011;40076;52.354;4.970;2023-02-15T09:44:27;73.03;;;42.88;;
54171;SDS011;40076;52.354;4.970;2023-02-15T09:47:13;79.10;;;43.85;;
54171;SDS011;40076;52.354;4.970;2023-02-15T09:59:12;74.03;;;43.53;;
54171;SDS011;40076;52.354;4.970;2023-02-15T10:13:20;76.95;;;46.00;;
54171;SDS011;40076;52.354;4.970;2023-02-15T10:16:17;81.45;;;45.45;;
54171;SDS011;40076;52.354;4.970;2023-02-15T10:18:55;78.95;;;44.95;;
54171;SDS011;40076;52.354;4.970;2023-02-15T10:26:46;74.93;;;46.00;;
54171;SDS011;40076;52.354;4.970;2023-02-15T10:40:31;73.10;;;42.42;;
54171;SDS011;40076;52.354;4.970;2023-02-15T10:45:59;66.25;;;38.33;;
54171;SDS011;40076;52.354;4.970;2023-02-15T10:51:54;60.60;;;37.33;;
54171;SDS011;40076;52.354;4.970;2023-02-15T10:54:45;64.18;;;37.58;;
54171;SDS011;40076;52.354;4.970;2023-02-15T10:57:30;65.82;;;36.00;;
54171;SDS011;40076;52.354;4.970;2023-02-15T11:00:20;63.80;;;36.10;;
54171;SDS011;40076;52.354;4.970;2023-02-15T11:03:02;62.17;;;35.40;;
54171;SDS011;40076;52.354;4.970;2023-02-15T11:05:42;57.97;;;35.70;;
54171;SDS011;40076;52.354;4.970;2023-02-15T11:08:31;58.63;;;34.65;;
54171;SDS011;40076;52.354;4.970;2023-02-15T11:11:01;59.42;;;35.60;;
54171;SDS011;40076;52.354;4.970;2023-02-15T11:13:50;58.70;;;34.15;;
54171;SDS011;40076;52.354;4.970;2023-02-15T11:16:21;58.70;;;34.85;;
54171;SDS011;40076;52.354;4.970;2023-02-15T11:21:29;59.97;;;35.63;;
54171;SDS011;40076;52.354;4.970;2023-02-15T11:23:57;59.50;;;35.80;;
54171;SDS011;40076;52.354;4.970;2023-02-15T11:26:34;61.92;;;35.60;;
54171;SDS011;40076;52.354;4.970;2023-02-15T11:29:13;61.80;;;35.75;;
54171;SDS011;40076;52.354;4.970;2023-02-15T11:31:55;62.83;;;36.70;;
54171;SDS011;40076;52.354;4.970;2023-02-15T11:34:34;64.93;;;37.05;;
54171;SDS011;40076;52.354;4.970;2023-02-15T11:37:06;61.15;;;36.70;;
54171;SDS011;40076;52.354;4.970;2023-02-15T11:39:35;63.58;;;36.28;;
54171;SDS011;40076;52.354;4.970;2023-02-15T11:42:04;60.88;;;35.28;;
54171;SDS011;40076;52.354;4.970;2023-02-15T11:44:41;57.65;;;35.72;;
54171;SDS011;40076;52.354;4.970;2023-02-15T11:47:21;60.58;;;36.03;;
54171;SDS011;40076;52.354;4.970;2023-02-15T11:49:46;60.85;;;36.15;;
54171;SDS011;40076;52.354;4.970;2023-02-15T11:52:13;64.30;;;37.85;;
54171;SDS011;40076;52.354;4.970;2023-02-15T11:54:46;64.10;;;37.42;;
54171;SDS011;40076;52.354;4.970;2023-02-15T11:57:17;60.28;;;38.25;;
54171;SDS011;40076;52.354;4.970;2023-02-15T12:02:44;61.25;;;36.70;;
54171;SDS011;40076;52.354;4.970;2023-02-15T12:05:14;66.35;;;37.35;;
54171;SDS011;40076;52.354;4.970;2023-02-15T12:07:45;67.45;;;38.15;;
54171;SDS011;40076;52.354;4.970;2023-02-15T12:10:17;58.60;;;36.70;;
54171;SDS011;40076;52.354;4.970;2023-02-15T12:12:43;62.85;;;38.72;;
54171;SDS011;40076;52.354;4.970;2023-02-15T12:15:09;62.35;;;37.78;;
54171;SDS011;40076;52.354;4.970;2023-02-15T12:17:39;65.05;;;39.60;;
54171;SDS011;40076;52.354;4.970;2023-02-15T12:22:52;64.07;;;39.63;;
54171;SDS011;40076;52.354;4.970;2023-02-15T12:25:21;66.75;;;39.78;;
54171;SDS011;40076;52.354;4.970;2023-02-15T12:28:24;63.90;;;39.67;;
54171;SDS011;40076;52.354;4.970;2023-02-15T12:30:50;60.28;;;40.08;;
54171;SDS011;40076;52.354;4.970;2023-02-15T12:35:56;67.40;;;38.85;;
54171;SDS011;40076;52.354;4.970;2023-02-15T12:38:25;63.90;;;39.58;;
54171;SDS011;40076;52.354;4.970;2023-02-15T12:40:58;64.13;;;41.03;;
54171;SDS011;40076;52.354;4.970;2023-02-15T12:43:32;66.53;;;40.97;;
54171;SDS011;40076;52.354;4.970;2023-02-15T12:51:46;66.28;;;41.45;;
54171;SDS011;40076;52.354;4.970;2023-02-15T12:56:55;68.97;;;42.70;;
54171;SDS011;40076;52.354;4.970;2023-02-15T12:59:24;63.72;;;40.25;;
54171;SDS011;40076;52.354;4.970;2023-02-15T13:01:53;66.18;;;42.05;;
54171;SDS011;40076;52.354;4.970;2023-02-15T13:04:26;67.10;;;41.42;;
54171;SDS011;40076;52.354;4.970;2023-02-15T13:06:57;61.95;;;40.63;;
54171;SDS011;40076;52.354;4.970;2023-02-15T13:12:21;64.97;;;41.25;;
54171;SDS011;40076;52.354;4.970;2023-02-15T13:14:48;65.72;;;41.42;;
54171;SDS011;40076;52.354;4.970;2023-02-15T13:17:16;68.03;;;41.42;;
54171;SDS011;40076;52.354;4.970;2023-02-15T13:19:46;63.70;;;41.20;;
54171;SDS011;40076;52.354;4.970;2023-02-15T13:22:17;69.25;;;41.67;;
54171;SDS011;40076;52.354;4.970;2023-02-15T13:27:12;70.13;;;41.70;;
54171;SDS011;40076;52.354;4.970;2023-02-15T13:29:43;62.88;;;41.88;;
54171;SDS011;40076;52.354;4.970;2023-02-15T13:32:32;63.75;;;41.15;;
54171;SDS011;40076;52.354;4.970;2023-02-15T13:34:58;63.80;;;40.67;;
54171;SDS011;40076;52.354;4.970;2023-02-15T13:40:14;70.25;;;44.25;;
54171;SDS011;40076;52.354;4.970;2023-02-15T13:48:21;67.80;;;42.33;;
54171;SDS011;40076;52.354;4.970;2023-02-15T13:53:43;65.55;;;41.20;;
54171;SDS011;40076;52.354;4.970;2023-02-15T13:56:34;64.78;;;42.60;;
54171;SDS011;40076;52.354;4.970;2023-02-15T14:01:51;66.43;;;43.50;;
54171;SDS011;40076;52.354;4.970;2023-02-15T14:08:18;67.60;;;43.50;;
54171;SDS011;40076;52.354;4.970;2023-02-15T14:18:54;63.22;;;41.03;;
54171;SDS011;40076;52.354;4.970;2023-02-15T14:21:32;65.75;;;41.63;;
54171;SDS011;40076;52.354;4.970;2023-02-15T14:24:09;65.68;;;42.80;;
54171;SDS011;40076;52.354;4.970;2023-02-15T14:31:51;67.55;;;42.85;;
54171;SDS011;40076;52.354;4.970;2023-02-15T14:34:30;66.07;;;41.03;;
54171;SDS011;40076;52.354;4.970;2023-02-15T14:37:08;63.95;;;42.10;;
54171;SDS011;40076;52.354;4.970;2023-02-15T14:45:15;61.90;;;40.22;;
54171;SDS011;40076;52.354;4.970;2023-02-15T14:47:57;60.40;;;38.78;;
54171;SDS011;40076;52.354;4.970;2023-02-15T14:56:04;58.50;;;39.03;;
54171;SDS011;40076;52.354;4.970;2023-02-15T14:58:32;60.83;;;38.88;;
54171;SDS011;40076;52.354;4.970;2023-02-15T15:01:03;63.30;;;40.88;;
54171;SDS011;40076;52.354;4.970;2023-02-15T15:03:33;60.17;;;40.30;;
54171;SDS011;40076;52.354;4.970;2023-02-15T15:06:01;60.10;;;38.50;;
54171;SDS011;40076;52.354;4.970;2023-02-15T15:08:38;60.33;;;39.10;;
54171;SDS011;40076;52.354;4.970;2023-02-15T15:13:53;59.45;;;39.30;;
54171;SDS011;40076;52.354;4.970;2023-02-15T15:16:29;61.75;;;38.45;;
54171;SDS011;40076;52.354;4.970;2023-02-15T15:18:55;61.78;;;39.40;;
54171;SDS011;40076;52.354;4.970;2023-02-15T15:21:51;61.40;;;39.42;;
54171;SDS011;40076;52.354;4.970;2023-02-15T15:32:12;60.58;;;39.08;;
54171;SDS011;40076;52.354;4.970;2023-02-15T15:35:12;59.90;;;39.35;;
54171;SDS011;40076;52.354;4.970;2023-02-15T15:41:05;60.50;;;40.40;;
54171;SDS011;40076;52.354;4.970;2023-02-15T15:46:58;59.00;;;37.67;;
54171;SDS011;40076;52.354;4.970;2023-02-15T15:49:44;59.55;;;37.83;;
54171;SDS011;40076;52.354;4.970;2023-02-15T15:52:16;57.45;;;38.75;;
54171;SDS011;40076;52.354;4.970;2023-02-15T15:54:44;61.53;;;40.40;;
54171;SDS011;40076;52.354;4.970;2023-02-15T15:57:21;60.78;;;39.53;;
54171;SDS011;40076;52.354;4.970;2023-02-15T15:59:50;63.00;;;39.17;;
54171;SDS011;40076;52.354;4.970;2023-02-15T16:02:16;57.47;;;37.72;;
54171;SDS011;40076;52.354;4.970;2023-02-15T16:04:42;62.90;;;38.72;;
54171;SDS011;40076;52.354;4.970;2023-02-15T16:07:20;58.72;;;38.20;;
54171;SDS011;40076;52.354;4.970;2023-02-15T16:09:58;57.42;;;37.03;;
54171;SDS011;40076;52.354;4.970;2023-02-15T16:12:25;60.08;;;36.70;;
54171;SDS011;40076;52.354;4.970;2023-02-15T16:14:52;56.55;;;35.85;;
54171;SDS011;40076;52.354;4.970;2023-02-15T16:17:28;58.80;;;35.95;;
54171;SDS011;40076;52.354;4.970;2023-02-15T16:20:06;60.35;;;37.33;;
54171;SDS011;40076;52.354;4.970;2023-02-15T16:22:39;59.03;;;36.47;;
54171;SDS011;40076;52.354;4.970;2023-02-15T16:27:48;41.47;;;27.67;;
54171;SDS011;40076;52.354;4.970;2023-02-15T16:30:21;67.35;;;36.88;;
54171;SDS011;40076;52.354;4.970;2023-02-15T16:33:13;61.90;;;37.13;;
54171;SDS011;40076;52.354;4.970;2023-02-15T16:35:52;59.90;;;38.78;;
54171;SDS011;40076;52.354;4.970;2023-02-15T16:41:09;60.08;;;38.05;;
54171;SDS011;40076;52.354;4.970;2023-02-15T16:43:37;60.28;;;38.65;;
54171;SDS011;40076;52.354;4.970;2023-02-15T16:46:12;58.88;;;37.78;;
54171;SDS011;40076;52.354;4.970;2023-02-15T16:48:42;48.45;;;31.25;;
54171;SDS011;40076;52.354;4.970;2023-02-15T16:51:10;62.10;;;39.60;;
54171;SDS011;40076;52.354;4.970;2023-02-15T16:53:47;60.03;;;38.30;;
54171;SDS011;40076;52.354;4.970;2023-02-15T16:56:34;59.45;;;38.70;;
54171;SDS011;40076;52.354;4.970;2023-02-15T16:59:03;61.47;;;39.47;;
54171;SDS011;40076;52.354;4.970;2023-02-15T17:01:31;63.63;;;40.22;;
54171;SDS011;40076;52.354;4.970;2023-02-15T17:04:26;61.20;;;37.97;;
54171;SDS011;40076;52.354;4.970;2023-02-15T17:09:31;63.08;;;40.10;;
54171;SDS011;40076;52.354;4.970;2023-02-15T17:12:00;67.32;;;40.60;;
54171;SDS011;40076;52.354;4.970;2023-02-15T17:14:27;65.53;;;40.83;;
54171;SDS011;40076;52.354;4.970;2023-02-15T17:17:00;64.35;;;40.92;;
54171;SDS011;40076;52.354;4.970;2023-02-15T17:19:31;64.28;;;39.28;;
54171;SDS011;40076;52.354;4.970;2023-02-15T17:22:02;62.50;;;40.70;;
54171;SDS011;40076;52.354;4.970;2023-02-15T17:27:03;61.92;;;39.70;;
54171;SDS011;40076;52.354;4.970;2023-02-15T17:29:36;63.80;;;41.58;;
54171;SDS011;40076;52.354;4.970;2023-02-15T17:32:04;64.10;;;42.05;;